Time;durP1;ratioP1;P1;durP2;ratioP2;P2;SDS_P1;SDS_P2;PMS_P1;PMS_P2;Temp;Humidity;BMP_temperature;BMP_pressure;BME280_temperature;BME280_humidity;BME280_pressure;Samples;Min_cycle;Max_cycle;Signal;HPM_P1;HPM_P2
2023/04/06 00:00:53;;;;;;;57.77;25.27;;;;;;;;;;10647048;27;20094;-77
2023/04/06 00:05:54;;;;;;;52.33;22.63;;;;;;;;;;10627795;27;20030;-76
2023/04/06 00:10:55;;;;;;;56.63;23.43;;;;;;;;;;10626876;27;20475;-78
2023/04/06 00:15:56;;;;;;;50.80;23.23;;;;;;;;;;10616605;27;20031;-76
2023/04/06 00:20:57;;;;;;;51.50;23.50;;;;;;;;;;10619267;27;20042;-76
2023/04/06 00:25:58;;;;;;;45.87;21.63;;;;;;;;;;10617261;27;20030;-76
2023/04/06 00:30:59;;;;;;;49.80;21.93;;;;;;;;;;10626128;27;20518;-76
2023/04/06 00:36:00;;;;;;;44.80;21.20;;;;;;;;;;10626424;27;20034;-76
2023/04/06 00:41:01;;;;;;;47.63;21.07;;;;;;;;;;10616693;27;20082;-76
2023/04/06 00:46:02;;;;;;;46.03;20.47;;;;;;;;;;10632683;27;20474;-76
2023/04/06 00:51:03;;;;;;;46.83;21.50;;;;;;;;;;10617218;27;20026;-78
2023/04/06 00:56:04;;;;;;;45.50;20.50;;;;;;;;;;10624883;27;20034;-75
2023/04/06 01:01:06;;;;;;;49.50;21.70;;;;;;;;;;10626376;27;20051;-76
2023/04/06 01:06:07;;;;;;;46.23;21.33;;;;;;;;;;10626372;27;20032;-77
2023/04/06 01:11:08;;;;;;;50.57;21.90;;;;;;;;;;10632340;27;20105;-77
2023/04/06 01:16:09;;;;;;;50.73;21.43;;;;;;;;;;10631883;27;20039;-76
2023/04/06 01:21:15;;;;;;;50.90;20.40;;;;;;;;;;10616674;27;20204;-76
2023/04/06 01:26:16;;;;;;;48.65;22.92;;;;;;;;;;10615896;27;20026;-76
2023/04/06 01:31:17;;;;;;;45.17;20.47;;;;;;;;;;10639053;27;20490;-76
2023/04/06 01:36:19;;;;;;;51.30;22.77;;;;;;;;;;10612234;27;20031;-77
2023/04/06 01:41:20;;;;;;;46.80;23.07;;;;;;;;;;10610778;27;20521;-76
2023/04/06 01:46:21;;;;;;;51.47;22.23;;;;;;;;;;10615930;27;20025;-78
2023/04/06 01:51:22;;;;;;;51.77;22.10;;;;;;;;;;10631952;27;20465;-76
2023/04/06 01:56:23;;;;;;;55.80;24.57;;;;;;;;;;10633774;27;20031;-76
2023/04/06 02:01:24;;;;;;;48.47;21.80;;;;;;;;;;10632666;27;20490;-77
2023/04/06 02:06:26;;;;;;;54.27;22.90;;;;;;;;;;10631922;27;20084;-78
2023/04/06 02:11:27;;;;;;;53.63;23.47;;;;;;;;;;10631787;27;20050;-76
2023/04/06 02:16:28;;;;;;;57.03;23.37;;;;;;;;;;10618454;27;20769;-76
2023/04/06 02:21:29;;;;;;;57.40;25.80;;;;;;;;;;10635331;27;20050;-76
2023/04/06 02:26:30;;;;;;;51.70;23.00;;;;;;;;;;10631891;27;20034;-77
2023/04/06 02:31:31;;;;;;;47.97;22.33;;;;;;;;;;10623563;27;20039;-76
2023/04/06 02:36:32;;;;;;;53.50;22.37;;;;;;;;;;10612274;27;20126;-76
2023/04/06 02:41:33;;;;;;;48.77;22.90;;;;;;;;;;10628985;27;20035;-77
2023/04/06 02:46:35;;;;;;;47.93;21.80;;;;;;;;;;10639549;27;20027;-77
2023/04/06 02:51:36;;;;;;;49.23;23.73;;;;;;;;;;10627182;27;20058;-77
2023/04/06 02:56:37;;;;;;;48.93;22.03;;;;;;;;;;10613027;27;20039;-76
2023/04/06 03:01:38;;;;;;;49.07;21.20;;;;;;;;;;10630055;27;20062;-76
2023/04/06 03:06:39;;;;;;;45.00;22.93;;;;;;;;;;10615037;27;20026;-76
2023/04/06 03:11:40;;;;;;;51.57;22.20;;;;;;;;;;10603339;27;20065;-77
2023/04/06 03:16:41;;;;;;;53.37;21.47;;;;;;;;;;10625601;27;20081;-78
2023/04/06 03:21:42;;;;;;;45.90;21.13;;;;;;;;;;10615945;27;20118;-77
2023/04/06 03:26:43;;;;;;;45.37;21.37;;;;;;;;;;10617046;27;20111;-77
2023/04/06 03:31:45;;;;;;;46.90;20.67;;;;;;;;;;10605264;27;20042;-77
2023/04/06 03:36:46;;;;;;;55.73;23.63;;;;;;;;;;10618082;27;20905;-77
2023/04/06 03:41:47;;;;;;;42.23;20.27;;;;;;;;;;10592210;27;20184;-77
2023/04/06 03:46:48;;;;;;;48.20;21.07;;;;;;;;;;10619664;27;20015;-77
2023/04/06 03:51:49;;;;;;;46.50;19.77;;;;;;;;;;10607981;27;20063;-77
2023/04/06 03:56:50;;;;;;;49.00;21.87;;;;;;;;;;10614827;27;20038;-75
2023/04/06 04:01:51;;;;;;;41.50;20.67;;;;;;;;;;10620398;27;20061;-77
2023/04/06 04:06:52;;;;;;;52.47;21.67;;;;;;;;;;10614277;27;20111;-79
2023/04/06 04:11:53;;;;;;;48.33;21.90;;;;;;;;;;10614358;27;20083;-76
2023/04/06 04:16:54;;;;;;;44.83;21.53;;;;;;;;;;10636323;27;20510;-77
2023/04/06 04:21:55;;;;;;;41.03;20.17;;;;;;;;;;10612992;27;20482;-76
2023/04/06 04:26:56;;;;;;;53.90;22.43;;;;;;;;;;10621896;27;20038;-77
2023/04/06 04:31:57;;;;;;;48.77;22.67;;;;;;;;;;10606652;27;20031;-77
2023/04/06 04:36:58;;;;;;;51.00;22.30;;;;;;;;;;10640910;27;20074;-77
2023/04/06 04:41:59;;;;;;;51.20;20.30;;;;;;;;;;10629388;27;20070;-76
2023/04/06 04:47:00;;;;;;;44.33;18.90;;;;;;;;;;10640091;27;20056;-77
2023/04/06 04:52:01;;;;;;;49.70;19.93;;;;;;;;;;10626640;27;20539;-75
2023/04/06 04:57:02;;;;;;;44.10;18.03;;;;;;;;;;10649242;27;20109;-76
2023/04/06 05:02:03;;;;;;;34.40;15.63;;;;;;;;;;10640860;27;20509;-76
2023/04/06 05:07:09;;;;;;;35.17;16.97;;;;;;;;;;10626928;27;20022;-76
2023/04/06 05:12:10;;;;;;;36.95;17.55;;;;;;;;;;10640629;27;20031;-75
2023/04/06 05:17:11;;;;;;;35.50;16.57;;;;;;;;;;10631827;27;20054;-76
2023/04/06 05:22:14;;;;;;;29.97;16.60;;;;;;;;;;10637756;27;20046;-76
2023/04/06 05:27:15;;;;;;;34.50;14.90;;;;;;;;;;10642801;27;20038;-76
2023/04/06 05:32:16;;;;;;;33.53;15.77;;;;;;;;;;10636339;27;20024;-76
2023/04/06 05:37:17;;;;;;;33.73;14.47;;;;;;;;;;10610739;27;20374;-77
2023/04/06 05:42:18;;;;;;;29.27;14.37;;;;;;;;;;10611329;28;20028;-76
2023/04/06 05:47:19;;;;;;;27.47;14.27;;;;;;;;;;10625168;27;20034;-76
2023/04/06 05:52:20;;;;;;;27.17;13.03;;;;;;;;;;10624431;27;20543;-76
2023/04/06 05:57:21;;;;;;;24.93;12.70;;;;;;;;;;10634706;27;20042;-77
2023/04/06 06:02:23;;;;;;;28.10;12.97;;;;;;;;;;10649948;27;20061;-76
2023/04/06 06:07:24;;;;;;;34.63;14.53;;;;;;;;;;10652967;27;20532;-78
2023/04/06 06:12:25;;;;;;;22.37;12.13;;;;;;;;;;10641681;27;20058;-76
2023/04/06 06:17:26;;;;;;;23.10;12.53;;;;;;;;;;10606160;27;20096;-78
2023/04/06 06:22:27;;;;;;;27.37;13.73;;;;;;;;;;10617374;27;20038;-77
2023/04/06 06:27:29;;;;;;;30.70;12.90;;;;;;;;;;10610982;27;20398;-77
2023/04/06 06:32:30;;;;;;;26.67;11.93;;;;;;;;;;10583807;27;20027;-76
2023/04/06 06:37:31;;;;;;;19.87;10.33;;;;;;;;;;10608852;27;20122;-76
2023/04/06 06:42:32;;;;;;;22.23;11.70;;;;;;;;;;10618944;27;20074;-75
2023/04/06 06:47:33;;;;;;;24.50;11.90;;;;;;;;;;10612483;27;20136;-75
2023/04/06 06:52:34;;;;;;;21.13;10.67;;;;;;;;;;10630721;27;20148;-76
2023/04/06 06:57:35;;;;;;;21.43;11.00;;;;;;;;;;10630915;27;20033;-76
2023/04/06 07:02:36;;;;;;;22.77;10.60;;;;;;;;;;10618431;27;20066;-76
2023/04/06 07:07:37;;;;;;;20.23;10.30;;;;;;;;;;10623624;27;20028;-77
2023/04/06 07:18:22;;;;;;;18.73;9.80;;;;;;;;;;10601757;27;20032;-77
2023/04/06 07:23:23;;;;;;;17.73;10.20;;;;;;;;;;10645977;27;20035;-76
2023/04/06 07:28:24;;;;;;;19.87;9.53;;;;;;;;;;10632565;27;20037;-76
2023/04/06 07:33:29;;;;;;;21.83;10.33;;;;;;;;;;10658439;27;20038;-76
2023/04/06 07:38:30;;;;;;;13.67;8.50;;;;;;;;;;10658020;27;20057;-76
2023/04/06 07:43:31;;;;;;;15.13;8.67;;;;;;;;;;10630380;27;20229;-77
2023/04/06 07:48:32;;;;;;;15.13;9.03;;;;;;;;;;10643296;27;20635;-76
2023/04/06 07:53:33;;;;;;;15.13;8.30;;;;;;;;;;10643670;27;20031;-76
2023/04/06 07:58:34;;;;;;;16.43;7.77;;;;;;;;;;10635904;27;20038;-75
2023/04/06 08:03:36;;;;;;;15.37;8.23;;;;;;;;;;10652539;27;20050;-77
2023/04/06 08:08:37;;;;;;;14.60;8.27;;;;;;;;;;10644773;27;20868;-77
2023/04/06 08:13:59;;;;;;;18.87;9.93;;;;;;;;;;10627738;27;20084;-75
2023/04/06 08:19:00;;;;;;;16.80;9.10;;;;;;;;;;10593917;27;20031;-77
2023/04/06 08:24:19;;;;;;;18.20;9.40;;;;;;;;;;10647145;27;20117;-76
2023/04/06 08:29:55;;;;;;;20.00;9.40;;;;;;;;;;10620968;27;20058;-76
2023/04/06 08:34:56;;;;;;;17.83;10.55;;;;;;;;;;10626389;27;20039;-76
2023/04/06 08:39:58;;;;;;;23.37;10.50;;;;;;;;;;10626517;27;20366;-77
2023/04/06 08:45:49;;;;;;;17.30;10.57;;;;;;;;;;10626353;27;20564;-77
2023/04/06 08:50:50;;;;;;;21.90;12.77;;;;;;;;;;10602437;27;20038;-77
2023/04/06 08:55:51;;;;;;;23.10;12.97;;;;;;;;;;10623384;27;20198;-78
2023/04/06 09:00:52;;;;;;;22.73;12.43;;;;;;;;;;10627794;27;20054;-77
2023/04/06 09:05:54;;;;;;;21.63;9.87;;;;;;;;;;10608453;27;20035;-77
2023/04/06 09:10:55;;;;;;;22.47;11.07;;;;;;;;;;10612546;27;20027;-78
2023/04/06 09:16:08;;;;;;;18.40;9.97;;;;;;;;;;10607383;27;20031;-77
2023/04/06 09:21:10;;;;;;;17.00;10.00;;;;;;;;;;10588802;27;20032;-76
2023/04/06 09:26:11;;;;;;;19.60;9.30;;;;;;;;;;10601931;27;20027;-76
2023/04/06 09:31:16;;;;;;;19.63;9.77;;;;;;;;;;10615135;27;20028;-77
2023/04/06 09:36:16;;;;;;;16.47;9.23;;;;;;;;;;10607851;27;20658;-76
2023/04/06 09:41:21;;;;;;;19.73;9.33;;;;;;;;;;10615128;27;20034;-77
2023/04/06 09:46:23;;;;;;;17.40;9.57;;;;;;;;;;10620468;27;20071;-78
2023/04/06 09:51:25;;;;;;;13.93;8.93;;;;;;;;;;10613502;27;20090;-77
2023/04/06 09:56:28;;;;;;;14.17;9.20;;;;;;;;;;10619144;27;20019;-77
2023/04/06 10:01:30;;;;;;;16.73;8.77;;;;;;;;;;10613028;27;20043;-77
2023/04/06 10:06:35;;;;;;;16.17;8.97;;;;;;;;;;10608627;28;20043;-77
2023/04/06 10:11:36;;;;;;;14.10;7.77;;;;;;;;;;10600942;22;20064;-76
2023/04/06 10:16:37;;;;;;;10.30;7.27;;;;;;;;;;10486820;28;20063;-77
2023/04/06 10:21:39;;;;;;;10.53;7.07;;;;;;;;;;10528308;28;20044;-76
2023/04/06 10:26:41;;;;;;;13.33;7.73;;;;;;;;;;10527536;28;20040;-77
2023/04/06 10:31:43;;;;;;;15.80;7.57;;;;;;;;;;10526534;28;20081;-76
2023/04/06 10:36:45;;;;;;;11.63;7.33;;;;;;;;;;10530177;28;20020;-76
2023/04/06 10:41:48;;;;;;;12.10;6.60;;;;;;;;;;10517547;28;20052;-78
2023/04/06 10:47:02;;;;;;;14.77;7.20;;;;;;;;;;10528244;28;20029;-77
2023/04/06 10:52:03;;;;;;;13.33;7.33;;;;;;;;;;10529932;28;20866;-77
2023/04/06 10:57:04;;;;;;;14.87;8.67;;;;;;;;;;10538132;28;20039;-76
2023/04/06 11:03:03;;;;;;;;;;;;;;;;;;;;;
2023/04/06 11:08:04;;;;;;;12.27;7.70;;;;;;;;;;10358896;28;20034;-75
2023/04/06 11:13:07;;;;;;;12.70;7.00;;;;;;;;;;10517702;27;20121;-76
2023/04/06 11:18:14;;;;;;;10.23;6.37;;;;;;;;;;10574619;28;20595;-76
2023/04/06 11:23:39;;;;;;;10.03;6.13;;;;;;;;;;10531855;28;20032;-76
2023/04/06 11:28:41;;;;;;;15.10;8.00;;;;;;;;;;10547442;28;20089;-76
2023/04/06 11:33:48;;;;;;;11.90;7.53;;;;;;;;;;10550341;28;20565;-77
2023/04/06 11:38:49;;;;;;;12.77;7.43;;;;;;;;;;10552129;28;20143;-75
2023/04/06 11:43:50;;;;;;;15.23;8.60;;;;;;;;;;10554063;28;20395;-76
2023/04/06 11:49:29;;;;;;;14.27;7.83;;;;;;;;;;10572824;28;20089;-76
2023/04/06 12:05:33;;;;;;;14.00;8.30;;;;;;;;;;10552628;28;20888;-76
2023/04/06 12:10:34;;;;;;;11.37;6.83;;;;;;;;;;10566412;28;20048;-76
2023/04/06 12:15:35;;;;;;;16.63;7.87;;;;;;;;;;10528139;28;20035;-77
2023/04/06 12:20:36;;;;;;;16.20;8.07;;;;;;;;;;10531556;28;20048;-77
2023/04/06 12:25:39;;;;;;;18.17;8.73;;;;;;;;;;10528518;28;20472;-79
2023/04/06 12:30:41;;;;;;;16.63;9.37;;;;;;;;;;10531753;28;20065;-78
2023/04/06 12:35:42;;;;;;;17.30;9.30;;;;;;;;;;10528066;28;20608;-77
2023/04/06 12:40:43;;;;;;;18.17;10.07;;;;;;;;;;10527748;28;20184;-76
2023/04/06 12:45:44;;;;;;;17.33;10.70;;;;;;;;;;10529826;28;20155;-78
2023/04/06 12:50:45;;;;;;;23.00;11.00;;;;;;;;;;10525604;28;20036;-77
2023/04/06 12:55:46;;;;;;;21.00;12.00;;;;;;;;;;10503352;28;20655;-77
2023/04/06 13:00:50;;;;;;;23.20;12.13;;;;;;;;;;10499817;28;20039;-76
2023/04/06 13:05:51;;;;;;;18.93;10.70;;;;;;;;;;10514427;28;20726;-76
2023/04/06 13:10:52;;;;;;;19.60;11.10;;;;;;;;;;10543550;28;20043;-76
2023/04/06 13:15:55;;;;;;;19.33;10.43;;;;;;;;;;10526475;28;20028;-77
2023/04/06 13:20:56;;;;;;;22.10;12.20;;;;;;;;;;10525979;28;20101;-77
2023/04/06 13:26:00;;;;;;;20.27;12.07;;;;;;;;;;10524489;28;20514;-77
2023/04/06 13:31:02;;;;;;;26.03;13.20;;;;;;;;;;10531344;28;20054;-76
2023/04/06 13:36:03;;;;;;;19.43;12.10;;;;;;;;;;10525950;28;20028;-77
2023/04/06 13:41:04;;;;;;;21.97;13.00;;;;;;;;;;10526337;28;20039;-76
2023/04/06 13:46:05;;;;;;;24.33;13.93;;;;;;;;;;10527066;28;20040;-79
2023/04/06 13:51:10;;;;;;;27.60;14.60;;;;;;;;;;10507304;28;20181;-77
2023/04/06 13:56:11;;;;;;;22.20;12.77;;;;;;;;;;10529007;28;20082;-77
2023/04/06 14:01:12;;;;;;;26.90;13.87;;;;;;;;;;10533593;28;20032;-77
2023/04/06 14:06:14;;;;;;;25.60;13.90;;;;;;;;;;10561199;28;20036;-76
2023/04/06 14:11:16;;;;;;;24.17;14.07;;;;;;;;;;10515455;28;20063;-76
2023/04/06 14:16:19;;;;;;;31.70;14.70;;;;;;;;;;10520727;28;20035;-77
2023/04/06 14:21:20;;;;;;;25.40;15.20;;;;;;;;;;10532042;28;20686;-77
2023/04/06 14:26:21;;;;;;;30.00;15.90;;;;;;;;;;10525374;28;20545;-76
2023/04/06 14:31:22;;;;;;;29.00;14.73;;;;;;;;;;10535386;28;20058;-77
2023/04/06 14:36:26;;;;;;;28.83;15.70;;;;;;;;;;10539281;28;20028;-77
2023/04/06 14:41:27;;;;;;;27.53;14.83;;;;;;;;;;10538296;28;20067;-78
2023/04/06 14:46:28;;;;;;;27.13;14.03;;;;;;;;;;10527163;28;20028;-76
2023/04/06 14:51:29;;;;;;;27.73;12.67;;;;;;;;;;10541718;28;20028;-77
2023/04/06 14:56:31;;;;;;;22.77;12.40;;;;;;;;;;10527462;28;20036;-78
2023/04/06 15:01:37;;;;;;;23.40;11.57;;;;;;;;;;10532081;28;20035;-77
2023/04/06 15:06:38;;;;;;;25.57;14.33;;;;;;;;;;10521282;28;20036;-77
2023/04/06 15:11:39;;;;;;;21.80;11.33;;;;;;;;;;10542358;28;20135;-76
2023/04/06 15:16:40;;;;;;;23.60;11.90;;;;;;;;;;10532406;28;20028;-77
2023/04/06 15:21:41;;;;;;;22.30;12.13;;;;;;;;;;10525457;28;20041;-77
2023/04/06 15:26:42;;;;;;;29.70;12.97;;;;;;;;;;10529214;28;20113;-77
2023/04/06 15:31:43;;;;;;;26.20;13.77;;;;;;;;;;10532428;28;20115;-77
2023/04/06 15:36:45;;;;;;;27.50;14.00;;;;;;;;;;10529027;28;20478;-78
2023/04/06 15:41:46;;;;;;;26.43;13.27;;;;;;;;;;10532172;28;20510;-77
2023/04/06 15:46:47;;;;;;;31.10;13.93;;;;;;;;;;10531013;28;20040;-77
2023/04/06 15:51:49;;;;;;;25.90;13.70;;;;;;;;;;10532220;28;20383;-77
2023/04/06 15:56:50;;;;;;;28.40;14.13;;;;;;;;;;10549997;28;20043;-77
2023/04/06 16:01:52;;;;;;;28.00;13.80;;;;;;;;;;10528171;28;20937;-77
2023/04/06 16:06:53;;;;;;;29.47;14.77;;;;;;;;;;10535911;28;20363;-77
2023/04/06 16:11:55;;;;;;;29.83;14.73;;;;;;;;;;10535231;28;20059;-79
2023/04/06 16:16:56;;;;;;;37.23;16.33;;;;;;;;;;10531221;28;20040;-79
2023/04/06 16:21:57;;;;;;;33.77;15.60;;;;;;;;;;10553768;28;20040;-79
2023/04/06 16:26:59;;;;;;;34.57;16.47;;;;;;;;;;10544994;28;20088;-79
2023/04/06 16:32:00;;;;;;;34.53;15.73;;;;;;;;;;10531967;28;20504;-78
2023/04/06 16:37:01;;;;;;;31.67;16.03;;;;;;;;;;10540260;28;20063;-79
2023/04/06 16:42:04;;;;;;;36.23;16.73;;;;;;;;;;10536558;28;20557;-79
2023/04/06 16:47:05;;;;;;;41.00;17.80;;;;;;;;;;10539434;28;20028;-78
2023/04/06 16:52:06;;;;;;;37.67;18.00;;;;;;;;;;10535663;28;20115;-76
2023/04/06 16:57:07;;;;;;;40.23;18.27;;;;;;;;;;10528071;28;20035;-78
2023/04/06 17:02:08;;;;;;;41.93;19.57;;;;;;;;;;10538561;28;20127;-78
2023/04/06 17:07:09;;;;;;;42.30;18.70;;;;;;;;;;10535202;28;20028;-78
2023/04/06 17:12:12;;;;;;;42.23;19.07;;;;;;;;;;10527310;28;20576;-77
2023/04/06 17:17:13;;;;;;;45.40;19.13;;;;;;;;;;10540742;28;20616;-78
2023/04/06 17:22:19;;;;;;;43.70;18.93;;;;;;;;;;10528599;28;20039;-77
2023/04/06 17:27:22;;;;;;;52.33;21.30;;;;;;;;;;10525149;28;20022;-80
2023/04/06 17:32:23;;;;;;;46.10;19.67;;;;;;;;;;10513554;28;20502;-77
2023/04/06 17:37:24;;;;;;;53.57;22.17;;;;;;;;;;10529530;28;20476;-77
2023/04/06 17:42:26;;;;;;;56.67;23.17;;;;;;;;;;10526078;28;20036;-77
2023/04/06 17:47:31;;;;;;;55.50;22.10;;;;;;;;;;10528959;28;20043;-78
2023/04/06 17:52:32;;;;;;;56.13;22.83;;;;;;;;;;10532849;28;20036;-77
2023/04/06 17:57:33;;;;;;;57.70;23.73;;;;;;;;;;10525698;28;20032;-77
2023/04/06 18:08:13;;;;;;;56.30;24.40;;;;;;;;;;10526515;28;20040;-79
2023/04/06 18:13:15;;;;;;;53.43;22.50;;;;;;;;;;10520390;28;20054;-77
2023/04/06 18:18:16;;;;;;;51.63;22.70;;;;;;;;;;10515154;28;20024;-77
2023/04/06 18:23:17;;;;;;;56.83;22.90;;;;;;;;;;10492177;28;20044;-79
2023/04/06 18:28:18;;;;;;;56.07;22.47;;;;;;;;;;10520433;28;20070;-76
2023/04/06 18:33:19;;;;;;;56.80;23.13;;;;;;;;;;10521362;28;20023;-77
2023/04/06 18:38:20;;;;;;;58.30;21.90;;;;;;;;;;10525294;28;20046;-80
2023/04/06 18:43:21;;;;;;;51.83;21.63;;;;;;;;;;10501807;28;20024;-78
2023/04/06 18:48:22;;;;;;;51.33;22.63;;;;;;;;;;10522870;28;20527;-78
2023/04/06 18:53:23;;;;;;;58.90;23.43;;;;;;;;;;10531604;28;20499;-78
2023/04/06 18:58:25;;;;;;;56.50;23.27;;;;;;;;;;10531809;28;20017;-79
2023/04/06 19:03:26;;;;;;;52.00;25.13;;;;;;;;;;10526605;28;20052;-78
2023/04/06 19:08:27;;;;;;;60.00;23.60;;;;;;;;;;10530574;28;20061;-77
2023/04/06 19:13:28;;;;;;;66.43;26.27;;;;;;;;;;10536381;28;20051;-79
2023/04/06 19:18:29;;;;;;;61.87;24.27;;;;;;;;;;10540774;28;20032;-78
2023/04/06 19:23:30;;;;;;;62.63;26.53;;;;;;;;;;10538411;28;20078;-78
2023/04/06 19:28:31;;;;;;;65.97;27.10;;;;;;;;;;10540181;28;20164;-77
2023/04/06 19:33:34;;;;;;;67.80;27.13;;;;;;;;;;10540672;28;20036;-78
2023/04/06 19:38:35;;;;;;;63.13;28.43;;;;;;;;;;10533744;28;20024;-78
2023/04/06 19:43:36;;;;;;;66.47;27.00;;;;;;;;;;10529471;28;20523;-78
2023/04/06 19:48:37;;;;;;;62.57;24.77;;;;;;;;;;10542071;28;20099;-78
2023/04/06 19:53:39;;;;;;;62.13;25.70;;;;;;;;;;10529261;28;20582;-77
2023/04/06 19:58:40;;;;;;;62.53;25.30;;;;;;;;;;10536360;28;20510;-78
2023/04/06 20:03:41;;;;;;;64.67;28.30;;;;;;;;;;10564993;22;20094;-76
2023/04/06 20:08:42;;;;;;;64.30;24.60;;;;;;;;;;10550844;28;20035;-77
2023/04/06 20:13:43;;;;;;;67.23;26.70;;;;;;;;;;10570781;28;20073;-77
2023/04/06 20:18:44;;;;;;;69.23;27.00;;;;;;;;;;10537457;28;20093;-79
2023/04/06 20:23:45;;;;;;;65.70;27.33;;;;;;;;;;10560272;28;20664;-77
2023/04/06 20:28:46;;;;;;;65.60;25.30;;;;;;;;;;10556880;28;20483;-77
2023/04/06 20:33:47;;;;;;;65.67;26.20;;;;;;;;;;10556244;28;20153;-78
2023/04/06 20:38:48;;;;;;;72.03;27.23;;;;;;;;;;10536222;28;20070;-77
2023/04/06 20:43:49;;;;;;;60.50;25.10;;;;;;;;;;10545316;28;20502;-77
2023/04/06 20:48:51;;;;;;;56.20;22.80;;;;;;;;;;10557402;28;20032;-78
2023/04/06 20:53:53;;;;;;;58.87;24.87;;;;;;;;;;10543068;28;20032;-77
2023/04/06 20:58:55;;;;;;;62.47;24.30;;;;;;;;;;10569744;28;20062;-77
2023/04/06 21:03:56;;;;;;;66.00;27.10;;;;;;;;;;10559660;28;20060;-78
2023/04/06 21:08:58;;;;;;;69.97;29.03;;;;;;;;;;10561465;28;20035;-78
2023/04/06 21:13:59;;;;;;;69.10;27.70;;;;;;;;;;10563223;28;20032;-77
2023/04/06 21:19:00;;;;;;;64.00;26.73;;;;;;;;;;10557268;28;20106;-78
2023/04/06 21:24:01;;;;;;;73.77;30.40;;;;;;;;;;10555880;28;20040;-78
2023/04/06 21:29:02;;;;;;;65.63;26.43;;;;;;;;;;10548944;28;20089;-79
2023/04/06 21:34:07;;;;;;;69.07;27.73;;;;;;;;;;10539328;28;20028;-78
2023/04/06 21:39:08;;;;;;;70.67;27.60;;;;;;;;;;10546610;28;20659;-78
2023/04/06 21:44:09;;;;;;;72.03;27.57;;;;;;;;;;10510117;22;20076;-78
2023/04/06 21:49:10;;;;;;;74.43;29.90;;;;;;;;;;10485399;28;20112;-78
2023/04/06 21:54:11;;;;;;;62.97;26.97;;;;;;;;;;10484543;28;20075;-78
2023/04/06 21:59:14;;;;;;;65.63;25.97;;;;;;;;;;10492614;28;20032;-78
2023/04/06 22:04:15;;;;;;;70.40;27.47;;;;;;;;;;10485072;28;20044;-78
2023/04/06 22:09:16;;;;;;;64.80;27.17;;;;;;;;;;10470966;28;20070;-78
2023/04/06 22:14:18;;;;;;;67.80;26.30;;;;;;;;;;10483739;28;20040;-78
2023/04/06 22:19:19;;;;;;;67.00;27.97;;;;;;;;;;10546040;22;20169;-77
2023/04/06 22:24:20;;;;;;;59.90;25.17;;;;;;;;;;10569530;28;20073;-78
2023/04/06 22:29:21;;;;;;;65.63;26.07;;;;;;;;;;10559219;28;20024;-78
2023/04/06 22:34:22;;;;;;;58.83;23.53;;;;;;;;;;10561083;28;20030;-79
2023/04/06 22:39:23;;;;;;;58.57;24.90;;;;;;;;;;10565684;28;20028;-79
2023/04/06 22:44:25;;;;;;;66.20;25.00;;;;;;;;;;10574664;28;20024;-78
2023/04/06 22:49:26;;;;;;;56.97;23.80;;;;;;;;;;10562594;28;20039;-78
2023/04/06 22:54:27;;;;;;;62.10;23.77;;;;;;;;;;10567612;28;20035;-78
2023/04/06 22:59:28;;;;;;;56.87;23.10;;;;;;;;;;10574572;28;20527;-77
2023/04/06 23:04:29;;;;;;;55.20;23.10;;;;;;;;;;10566389;28;20495;-78
2023/04/06 23:09:30;;;;;;;59.23;23.43;;;;;;;;;;10572550;28;20063;-77
2023/04/06 23:14:31;;;;;;;58.57;23.27;;;;;;;;;;10573864;28;20034;-78
2023/04/06 23:19:32;;;;;;;57.70;22.27;;;;;;;;;;10556146;28;20561;-78
2023/04/06 23:24:33;;;;;;;54.20;22.00;;;;;;;;;;10558341;28;20039;-79
2023/04/06 23:29:34;;;;;;;49.37;21.57;;;;;;;;;;10571549;28;20042;-78
2023/04/06 23:34:35;;;;;;;52.70;21.63;;;;;;;;;;10570758;28;20028;-78
2023/04/06 23:39:38;;;;;;;50.70;20.77;;;;;;;;;;10550606;28;20513;-77
2023/04/06 23:44:39;;;;;;;52.73;21.67;;;;;;;;;;10569314;28;20443;-78
2023/04/06 23:49:40;;;;;;;53.53;22.33;;;;;;;;;;10571576;28;20042;-79
2023/04/06 23:54:41;;;;;;;54.80;21.63;;;;;;;;;;10540080;28;20032;-78
2023/04/06 23:59:42;;;;;;;55.70;20.70;;;;;;;;;;10538603;28;20035;-78
